Ashfield, Massachusetts
Current Conditions -  °F | °C
As of 5:52 AM on Friday 28 Nov 2014 (Local Time) from KAQW Reporting Station
Light Snow Light Snow  
Wind Chill: -7°   Ceiling: 2000
Heat Index: -3°   Visibility: 4mi
Dew Point: -4°   Wind: 6mph
Humidity: 92%   Direction: 260°W
Pressure: 30.04"   Gusts: NA
Location:  42.53°N, 72.79°W
Report Text: KAQW 281052Z AUTO 26005KT 4SM -SN BR BKN020 OVC024 M03/M04 A3004 RMK AO2 SNB23 SLP181 P0000 T10331044 FZRANO $
Loading
Personal Weather Stations






























Interactive Weather Map New forecast layout! Learn more

10-Day Weather Forecast

Advertisements
Track Severe Weather on mobile